sensor_id;sensor_type;location;lat;lon;timestamp;temperature;humidity
59098;DHT22;44883;52.760;6.610;2022-10-16T00:00:30;12.40;99.90
59098;DHT22;44883;52.760;6.610;2022-10-16T00:02:55;12.40;99.90
59098;DHT22;44883;52.760;6.610;2022-10-16T00:05:21;12.40;99.90
59098;DHT22;44883;52.760;6.610;2022-10-16T00:07:46;12.40;99.90
59098;DHT22;44883;52.760;6.610;2022-10-16T00:10:12;12.40;99.90
59098;DHT22;44883;52.760;6.610;2022-10-16T00:12:37;12.40;99.90
59098;DHT22;44883;52.760;6.610;2022-10-16T00:15:03;12.40;99.90
59098;DHT22;44883;52.760;6.610;2022-10-16T00:17:29;12.40;99.90
59098;DHT22;44883;52.760;6.610;2022-10-16T00:19:54;12.50;99.90
59098;DHT22;44883;52.760;6.610;2022-10-16T00:22:20;12.50;99.90
59098;DHT22;44883;52.760;6.610;2022-10-16T00:24:45;12.40;99.90
59098;DHT22;44883;52.760;6.610;2022-10-16T00:27:11;12.40;99.90
59098;DHT22;44883;52.760;6.610;2022-10-16T00:29:36;12.40;99.90
59098;DHT22;44883;52.760;6.610;2022-10-16T00:32:02;12.40;99.90
59098;DHT22;44883;52.760;6.610;2022-10-16T00:34:27;12.30;99.90
59098;DHT22;44883;52.760;6.610;2022-10-16T00:36:53;12.30;99.90
59098;DHT22;44883;52.760;6.610;2022-10-16T00:39:18;12.30;99.90
59098;DHT22;44883;52.760;6.610;2022-10-16T00:41:44;12.30;99.90
59098;DHT22;44883;52.760;6.610;2022-10-16T00:46:54;12.20;99.90
59098;DHT22;44883;52.760;6.610;2022-10-16T00:49:19;12.20;99.90
59098;DHT22;44883;52.760;6.610;2022-10-16T00:51:52;12.20;99.90
59098;DHT22;44883;52.760;6.610;2022-10-16T00:54:23;12.20;99.90
59098;DHT22;44883;52.760;6.610;2022-10-16T00:56:49;12.10;99.90
59098;DHT22;44883;52.760;6.610;2022-10-16T00:59:19;12.10;99.90
59098;DHT22;44883;52.760;6.610;2022-10-16T01:01:45;12.10;99.90
59098;DHT22;44883;52.760;6.610;2022-10-16T01:04:11;12.10;99.90
59098;DHT22;44883;52.760;6.610;2022-10-16T01:06:40;12.10;99.90
59098;DHT22;44883;52.760;6.610;2022-10-16T01:09:11;12.20;99.90
59098;DHT22;44883;52.760;6.610;2022-10-16T01:14:15;12.20;99.90
59098;DHT22;44883;52.760;6.610;2022-10-16T01:16:44;12.20;99.90
59098;DHT22;44883;52.760;6.610;2022-10-16T01:19:23;12.20;99.90
59098;DHT22;44883;52.760;6.610;2022-10-16T01:21:51;12.20;99.90
59098;DHT22;44883;52.760;6.610;2022-10-16T01:27:29;12.20;99.90
59098;DHT22;44883;52.760;6.610;2022-10-16T01:29:54;12.20;99.90
59098;DHT22;44883;52.760;6.610;2022-10-16T01:32:31;12.20;99.90
59098;DHT22;44883;52.760;6.610;2022-10-16T01:34:59;12.20;99.90
59098;DHT22;44883;52.760;6.610;2022-10-16T01:37:40;12.10;99.90
59098;DHT22;44883;52.760;6.610;2022-10-16T01:40:09;12.20;99.90
59098;DHT22;44883;52.760;6.610;2022-10-16T01:42:38;12.20;99.90
59098;DHT22;44883;52.760;6.610;2022-10-16T01:45:04;12.20;99.90
59098;DHT22;44883;52.760;6.610;2022-10-16T01:47:31;12.10;99.90
59098;DHT22;44883;52.760;6.610;2022-10-16T01:49:57;12.10;99.90
59098;DHT22;44883;52.760;6.610;2022-10-16T01:52:25;12.20;99.90
59098;DHT22;44883;52.760;6.610;2022-10-16T01:54:52;12.20;99.90
59098;DHT22;44883;52.760;6.610;2022-10-16T01:57:19;12.20;99.90
59098;DHT22;44883;52.760;6.610;2022-10-16T01:59:48;12.20;99.90
59098;DHT22;44883;52.760;6.610;2022-10-16T02:02:15;12.20;99.90
59098;DHT22;44883;52.760;6.610;2022-10-16T02:04:44;12.20;99.90
59098;DHT22;44883;52.760;6.610;2022-10-16T02:07:10;12.30;99.90
59098;DHT22;44883;52.760;6.610;2022-10-16T02:09:36;12.30;99.90
59098;DHT22;44883;52.760;6.610;2022-10-16T02:12:04;12.30;99.90
59098;DHT22;44883;52.760;6.610;2022-10-16T02:14:31;12.30;99.90
59098;DHT22;44883;52.760;6.610;2022-10-16T02:16:57;12.30;99.90
59098;DHT22;44883;52.760;6.610;2022-10-16T02:19:23;12.30;99.90
59098;DHT22;44883;52.760;6.610;2022-10-16T02:22:06;12.30;99.90
59098;DHT22;44883;52.760;6.610;2022-10-16T02:24:34;12.30;99.90
59098;DHT22;44883;52.760;6.610;2022-10-16T02:27:06;12.30;99.90
59098;DHT22;44883;52.760;6.610;2022-10-16T02:29:34;12.30;99.90
59098;DHT22;44883;52.760;6.610;2022-10-16T02:32:03;12.30;99.90
59098;DHT22;44883;52.760;6.610;2022-10-16T02:34:30;12.40;99.90
59098;DHT22;44883;52.760;6.610;2022-10-16T02:36:57;12.40;99.90
59098;DHT22;44883;52.760;6.610;2022-10-16T02:39:23;12.40;99.90
59098;DHT22;44883;52.760;6.610;2022-10-16T02:41:48;12.50;99.90
59098;DHT22;44883;52.760;6.610;2022-10-16T02:44:14;12.50;99.90
59098;DHT22;44883;52.760;6.610;2022-10-16T02:46:39;12.50;99.90
59098;DHT22;44883;52.760;6.610;2022-10-16T02:49:05;12.50;99.90
59098;DHT22;44883;52.760;6.610;2022-10-16T02:51:30;12.50;99.90
59098;DHT22;44883;52.760;6.610;2022-10-16T02:53:56;12.60;99.90
59098;DHT22;44883;52.760;6.610;2022-10-16T02:56:21;12.50;99.90
59098;DHT22;44883;52.760;6.610;2022-10-16T02:58:47;12.50;99.90
59098;DHT22;44883;52.760;6.610;2022-10-16T03:01:12;12.50;99.90
59098;DHT22;44883;52.760;6.610;2022-10-16T03:03:39;12.50;99.90
59098;DHT22;44883;52.760;6.610;2022-10-16T03:06:05;12.60;99.90
59098;DHT22;44883;52.760;6.610;2022-10-16T03:08:31;12.50;99.90
59098;DHT22;44883;52.760;6.610;2022-10-16T03:10:56;12.60;99.90
59098;DHT22;44883;52.760;6.610;2022-10-16T03:13:22;12.50;99.90
59098;DHT22;44883;52.760;6.610;2022-10-16T03:15:47;12.50;99.90
59098;DHT22;44883;52.760;6.610;2022-10-16T03:18:12;12.50;99.90
59098;DHT22;44883;52.760;6.610;2022-10-16T03:20:38;12.60;99.90
59098;DHT22;44883;52.760;6.610;2022-10-16T03:23:04;12.60;99.90
59098;DHT22;44883;52.760;6.610;2022-10-16T03:25:29;12.60;99.90
59098;DHT22;44883;52.760;6.610;2022-10-16T03:27:55;12.60;99.90
59098;DHT22;44883;52.760;6.610;2022-10-16T03:30:20;12.60;99.90
59098;DHT22;44883;52.760;6.610;2022-10-16T03:32:46;12.60;99.90
59098;DHT22;44883;52.760;6.610;2022-10-16T03:35:11;12.60;99.90
59098;DHT22;44883;52.760;6.610;2022-10-16T03:37:37;12.60;99.90
59098;DHT22;44883;52.760;6.610;2022-10-16T03:40:03;12.60;99.90
59098;DHT22;44883;52.760;6.610;2022-10-16T03:42:28;12.60;99.90
59098;DHT22;44883;52.760;6.610;2022-10-16T03:44:54;12.60;99.90
59098;DHT22;44883;52.760;6.610;2022-10-16T03:47:19;12.60;99.90
59098;DHT22;44883;52.760;6.610;2022-10-16T03:49:47;12.60;99.90
59098;DHT22;44883;52.760;6.610;2022-10-16T03:52:13;12.60;99.90
59098;DHT22;44883;52.760;6.610;2022-10-16T03:54:38;12.60;99.90
59098;DHT22;44883;52.760;6.610;2022-10-16T03:57:04;12.60;99.90
59098;DHT22;44883;52.760;6.610;2022-10-16T03:59:30;12.60;99.90
59098;DHT22;44883;52.760;6.610;2022-10-16T04:01:55;12.60;99.90
59098;DHT22;44883;52.760;6.610;2022-10-16T04:04:21;12.50;99.90
59098;DHT22;44883;52.760;6.610;2022-10-16T04:06:46;12.50;99.90
59098;DHT22;44883;52.760;6.610;2022-10-16T04:09:12;12.50;99.90
59098;DHT22;44883;52.760;6.610;2022-10-16T04:11:37;12.50;99.90
59098;DHT22;44883;52.760;6.610;2022-10-16T04:14:03;12.40;99.90
59098;DHT22;44883;52.760;6.610;2022-10-16T04:16:28;12.40;99.90
59098;DHT22;44883;52.760;6.610;2022-10-16T04:18:54;12.40;99.90
59098;DHT22;44883;52.760;6.610;2022-10-16T04:21:19;12.30;99.90
59098;DHT22;44883;52.760;6.610;2022-10-16T04:23:45;12.30;99.90
59098;DHT22;44883;52.760;6.610;2022-10-16T04:26:10;12.30;99.90
59098;DHT22;44883;52.760;6.610;2022-10-16T04:28:36;12.20;99.90
59098;DHT22;44883;52.760;6.610;2022-10-16T04:31:03;12.30;99.90
59098;DHT22;44883;52.760;6.610;2022-10-16T04:33:29;12.30;99.90
59098;DHT22;44883;52.760;6.610;2022-10-16T04:35:58;12.30;99.90
59098;DHT22;44883;52.760;6.610;2022-10-16T04:38:24;12.20;99.90
59098;DHT22;44883;52.760;6.610;2022-10-16T04:40:49;12.20;99.90
59098;DHT22;44883;52.760;6.610;2022-10-16T04:43:15;12.20;99.90
59098;DHT22;44883;52.760;6.610;2022-10-16T04:45:41;12.30;99.90
59098;DHT22;44883;52.760;6.610;2022-10-16T04:48:06;12.30;99.90
59098;DHT22;44883;52.760;6.610;2022-10-16T04:50:32;12.30;99.90
59098;DHT22;44883;52.760;6.610;2022-10-16T04:52:57;12.30;99.90
59098;DHT22;44883;52.760;6.610;2022-10-16T04:55:23;12.30;99.90
59098;DHT22;44883;52.760;6.610;2022-10-16T04:57:48;12.30;99.90
59098;DHT22;44883;52.760;6.610;2022-10-16T05:00:14;12.30;99.90
59098;DHT22;44883;52.760;6.610;2022-10-16T05:02:39;12.30;99.90
59098;DHT22;44883;52.760;6.610;2022-10-16T05:05:05;12.30;99.90
59098;DHT22;44883;52.760;6.610;2022-10-16T05:07:30;12.30;99.90
59098;DHT22;44883;52.760;6.610;2022-10-16T05:09:56;12.30;99.90
59098;DHT22;44883;52.760;6.610;2022-10-16T05:12:21;12.30;99.90
59098;DHT22;44883;52.760;6.610;2022-10-16T05:14:47;12.30;99.90
59098;DHT22;44883;52.760;6.610;2022-10-16T05:17:12;12.30;99.90
59098;DHT22;44883;52.760;6.610;2022-10-16T05:19:38;12.30;99.90
59098;DHT22;44883;52.760;6.610;2022-10-16T05:22:03;12.30;99.90
59098;DHT22;44883;52.760;6.610;2022-10-16T05:24:29;12.20;99.90
59098;DHT22;44883;52.760;6.610;2022-10-16T05:26:54;12.20;99.90
59098;DHT22;44883;52.760;6.610;2022-10-16T05:29:20;12.20;99.90
59098;DHT22;44883;52.760;6.610;2022-10-16T05:31:45;12.20;99.90
59098;DHT22;44883;52.760;6.610;2022-10-16T05:34:11;12.20;99.90
59098;DHT22;44883;52.760;6.610;2022-10-16T05:36:36;12.10;99.90
59098;DHT22;44883;52.760;6.610;2022-10-16T05:39:02;12.10;99.90
59098;DHT22;44883;52.760;6.610;2022-10-16T05:41:27;12.10;99.90
59098;DHT22;44883;52.760;6.610;2022-10-16T05:43:53;12.10;99.90
59098;DHT22;44883;52.760;6.610;2022-10-16T05:46:18;12.10;99.90
59098;DHT22;44883;52.760;6.610;2022-10-16T05:48:44;12.10;99.90
59098;DHT22;44883;52.760;6.610;2022-10-16T05:51:11;12.10;99.90
59098;DHT22;44883;52.760;6.610;2022-10-16T05:53:37;12.00;99.90
59098;DHT22;44883;52.760;6.610;2022-10-16T05:56:03;12.10;99.90
59098;DHT22;44883;52.760;6.610;2022-10-16T05:58:30;12.00;99.90
59098;DHT22;44883;52.760;6.610;2022-10-16T06:01:06;12.10;99.90
59098;DHT22;44883;52.760;6.610;2022-10-16T06:03:32;12.00;99.90
59098;DHT22;44883;52.760;6.610;2022-10-16T06:05:58;12.00;99.90
59098;DHT22;44883;52.760;6.610;2022-10-16T06:08:23;12.10;99.90
59098;DHT22;44883;52.760;6.610;2022-10-16T06:10:59;12.10;99.90
59098;DHT22;44883;52.760;6.610;2022-10-16T06:13:25;12.10;99.90
59098;DHT22;44883;52.760;6.610;2022-10-16T06:15:50;12.10;99.90
59098;DHT22;44883;52.760;6.610;2022-10-16T06:18:16;12.10;99.90
59098;DHT22;44883;52.760;6.610;2022-10-16T06:20:41;12.10;99.90
59098;DHT22;44883;52.760;6.610;2022-10-16T06:23:07;12.10;99.90
59098;DHT22;44883;52.760;6.610;2022-10-16T06:25:32;12.10;99.90
59098;DHT22;44883;52.760;6.610;2022-10-16T06:27:58;12.10;99.90
59098;DHT22;44883;52.760;6.610;2022-10-16T06:30:23;12.10;99.90
59098;DHT22;44883;52.760;6.610;2022-10-16T06:32:49;12.20;99.90
59098;DHT22;44883;52.760;6.610;2022-10-16T06:35:14;12.20;99.90
59098;DHT22;44883;52.760;6.610;2022-10-16T06:37:39;12.20;99.90
59098;DHT22;44883;52.760;6.610;2022-10-16T06:40:05;12.20;99.90
59098;DHT22;44883;52.760;6.610;2022-10-16T06:42:31;12.30;99.90
59098;DHT22;44883;52.760;6.610;2022-10-16T06:44:56;12.30;99.90
59098;DHT22;44883;52.760;6.610;2022-10-16T06:47:22;12.30;99.90
59098;DHT22;44883;52.760;6.610;2022-10-16T06:49:47;12.40;99.90
59098;DHT22;44883;52.760;6.610;2022-10-16T06:52:13;12.40;99.90
59098;DHT22;44883;52.760;6.610;2022-10-16T06:54:38;12.50;99.90
59098;DHT22;44883;52.760;6.610;2022-10-16T06:57:04;12.50;99.90
59098;DHT22;44883;52.760;6.610;2022-10-16T06:59:29;12.60;99.90
59098;DHT22;44883;52.760;6.610;2022-10-16T07:01:54;12.90;99.90
59098;DHT22;44883;52.760;6.610;2022-10-16T07:04:20;13.20;99.90
59098;DHT22;44883;52.760;6.610;2022-10-16T07:06:45;13.30;99.90
59098;DHT22;44883;52.760;6.610;2022-10-16T07:09:11;13.30;99.90
59098;DHT22;44883;52.760;6.610;2022-10-16T07:11:37;13.20;99.90
59098;DHT22;44883;52.760;6.610;2022-10-16T07:14:03;13.20;99.90
59098;DHT22;44883;52.760;6.610;2022-10-16T07:16:30;13.10;99.90
59098;DHT22;44883;52.760;6.610;2022-10-16T07:18:56;13.10;99.90
59098;DHT22;44883;52.760;6.610;2022-10-16T07:21:28;13.10;99.90
59098;DHT22;44883;52.760;6.610;2022-10-16T07:23:55;13.10;99.90
59098;DHT22;44883;52.760;6.610;2022-10-16T07:26:22;13.10;99.90
59098;DHT22;44883;52.760;6.610;2022-10-16T07:28:47;13.10;99.90
59098;DHT22;44883;52.760;6.610;2022-10-16T07:31:13;13.20;99.90
59098;DHT22;44883;52.760;6.610;2022-10-16T07:33:40;13.40;99.90
59098;DHT22;44883;52.760;6.610;2022-10-16T07:36:07;13.60;99.90
59098;DHT22;44883;52.760;6.610;2022-10-16T07:38:32;13.70;99.90
59098;DHT22;44883;52.760;6.610;2022-10-16T07:40:59;13.70;99.90
59098;DHT22;44883;52.760;6.610;2022-10-16T07:43:25;13.70;99.90
59098;DHT22;44883;52.760;6.610;2022-10-16T07:45:50;13.70;99.90
59098;DHT22;44883;52.760;6.610;2022-10-16T07:48:16;13.70;99.90
59098;DHT22;44883;52.760;6.610;2022-10-16T07:50:42;13.70;99.90
59098;DHT22;44883;52.760;6.610;2022-10-16T07:53:08;13.70;99.90
59098;DHT22;44883;52.760;6.610;2022-10-16T07:55:34;13.70;99.90
59098;DHT22;44883;52.760;6.610;2022-10-16T07:57:59;13.60;99.90
59098;DHT22;44883;52.760;6.610;2022-10-16T08:00:25;13.60;99.90
59098;DHT22;44883;52.760;6.610;2022-10-16T08:02:50;13.60;99.90
59098;DHT22;44883;52.760;6.610;2022-10-16T08:05:16;13.60;99.90
59098;DHT22;44883;52.760;6.610;2022-10-16T08:07:41;13.60;99.90
59098;DHT22;44883;52.760;6.610;2022-10-16T08:10:10;13.70;99.90
59098;DHT22;44883;52.760;6.610;2022-10-16T08:12:37;13.80;99.90
59098;DHT22;44883;52.760;6.610;2022-10-16T08:15:03;13.90;99.90
59098;DHT22;44883;52.760;6.610;2022-10-16T08:17:28;14.10;99.90
59098;DHT22;44883;52.760;6.610;2022-10-16T08:19:54;14.20;99.90
59098;DHT22;44883;52.760;6.610;2022-10-16T08:22:19;14.30;99.90
59098;DHT22;44883;52.760;6.610;2022-10-16T08:24:44;14.30;99.90
59098;DHT22;44883;52.760;6.610;2022-10-16T08:27:10;14.40;99.90
59098;DHT22;44883;52.760;6.610;2022-10-16T08:29:35;14.40;99.90
59098;DHT22;44883;52.760;6.610;2022-10-16T08:32:01;14.40;99.90
59098;DHT22;44883;52.760;6.610;2022-10-16T08:34:28;14.50;99.90
59098;DHT22;44883;52.760;6.610;2022-10-16T08:36:54;14.60;99.90
59098;DHT22;44883;52.760;6.610;2022-10-16T08:39:20;14.70;99.90
59098;DHT22;44883;52.760;6.610;2022-10-16T08:46:45;15.20;99.90
59098;DHT22;44883;52.760;6.610;2022-10-16T08:49:13;15.30;99.90
59098;DHT22;44883;52.760;6.610;2022-10-16T08:51:39;15.30;99.90
59098;DHT22;44883;52.760;6.610;2022-10-16T08:56:36;15.30;99.90
59098;DHT22;44883;52.760;6.610;2022-10-16T08:59:02;15.20;99.90
59098;DHT22;44883;52.760;6.610;2022-10-16T09:01:39;15.10;99.90
59098;DHT22;44883;52.760;6.610;2022-10-16T09:06:52;15.00;99.90
59098;DHT22;44883;52.760;6.610;2022-10-16T09:14:47;15.10;99.90
59098;DHT22;44883;52.760;6.610;2022-10-16T09:17:19;15.20;99.90
59098;DHT22;44883;52.760;6.610;2022-10-16T09:19:56;15.10;99.90
59098;DHT22;44883;52.760;6.610;2022-10-16T09:22:25;15.10;99.90
59098;DHT22;44883;52.760;6.610;2022-10-16T09:24:52;15.00;99.90
59098;DHT22;44883;52.760;6.610;2022-10-16T09:27:18;15.00;99.90
59098;DHT22;44883;52.760;6.610;2022-10-16T09:29:43;15.00;99.90
59098;DHT22;44883;52.760;6.610;2022-10-16T09:32:12;14.90;99.90
59098;DHT22;44883;52.760;6.610;2022-10-16T09:34:42;14.90;99.90
59098;DHT22;44883;52.760;6.610;2022-10-16T09:37:09;14.90;99.90
59098;DHT22;44883;52.760;6.610;2022-10-16T09:39:45;14.90;99.90
59098;DHT22;44883;52.760;6.610;2022-10-16T09:42:14;14.90;99.90
59098;DHT22;44883;52.760;6.610;2022-10-16T09:44:40;14.90;99.90
59098;DHT22;44883;52.760;6.610;2022-10-16T09:47:12;15.00;99.90
59098;DHT22;44883;52.760;6.610;2022-10-16T09:49:38;15.00;99.90
59098;DHT22;44883;52.760;6.610;2022-10-16T09:52:04;15.10;99.90
59098;DHT22;44883;52.760;6.610;2022-10-16T09:54:31;15.20;99.90
59098;DHT22;44883;52.760;6.610;2022-10-16T09:57:06;15.20;99.90
59098;DHT22;44883;52.760;6.610;2022-10-16T09:59:32;15.30;99.90
59098;DHT22;44883;52.760;6.610;2022-10-16T10:02:01;15.30;99.90
59098;DHT22;44883;52.760;6.610;2022-10-16T10:04:36;15.50;99.90
59098;DHT22;44883;52.760;6.610;2022-10-16T10:07:03;16.20;99.90
59098;DHT22;44883;52.760;6.610;2022-10-16T10:09:32;17.10;99.90
59098;DHT22;44883;52.760;6.610;2022-10-16T10:12:00;18.40;99.90
59098;DHT22;44883;52.760;6.610;2022-10-16T10:17:02;20.20;99.90
59098;DHT22;44883;52.760;6.610;2022-10-16T10:19:39;21.30;99.40
59098;DHT22;44883;52.760;6.610;2022-10-16T10:22:39;21.90;95.30
59098;DHT22;44883;52.760;6.610;2022-10-16T10:27:33;20.60;96.10
59098;DHT22;44883;52.760;6.610;2022-10-16T10:32:38;19.40;99.90
59098;DHT22;44883;52.760;6.610;2022-10-16T10:37:37;18.60;99.90
59098;DHT22;44883;52.760;6.610;2022-10-16T10:52:34;16.80;99.90
59098;DHT22;44883;52.760;6.610;2022-10-16T10:55:09;16.70;99.90
59098;DHT22;44883;52.760;6.610;2022-10-16T10:57:39;16.50;99.90
59098;DHT22;44883;52.760;6.610;2022-10-16T11:02:37;16.40;99.90
59098;DHT22;44883;52.760;6.610;2022-10-16T11:07:35;16.20;99.90
59098;DHT22;44883;52.760;6.610;2022-10-16T11:10:04;16.20;99.90
59098;DHT22;44883;52.760;6.610;2022-10-16T11:12:38;16.30;99.90
59098;DHT22;44883;52.760;6.610;2022-10-16T11:15:13;16.40;99.90
59098;DHT22;44883;52.760;6.610;2022-10-16T11:17:41;16.30;99.90
59098;DHT22;44883;52.760;6.610;2022-10-16T11:20:14;16.30;99.90
59098;DHT22;44883;52.760;6.610;2022-10-16T11:25:13;16.10;99.90
59098;DHT22;44883;52.760;6.610;2022-10-16T11:27:48;16.10;99.90
59098;DHT22;44883;52.760;6.610;2022-10-16T11:30:23;16.10;99.90
59098;DHT22;44883;52.760;6.610;2022-10-16T11:33:10;16.10;99.90
59098;DHT22;44883;52.760;6.610;2022-10-16T11:35:47;16.20;99.90
59098;DHT22;44883;52.760;6.610;2022-10-16T11:41:23;16.20;99.90
59098;DHT22;44883;52.760;6.610;2022-10-16T11:43:52;16.10;99.90
59098;DHT22;44883;52.760;6.610;2022-10-16T11:46:22;16.10;99.90
59098;DHT22;44883;52.760;6.610;2022-10-16T11:48:50;16.20;99.90
59098;DHT22;44883;52.760;6.610;2022-10-16T11:51:40;16.30;99.90
59098;DHT22;44883;52.760;6.610;2022-10-16T11:56:46;16.40;99.90
59098;DHT22;44883;52.760;6.610;2022-10-16T12:04:41;16.40;99.90
59098;DHT22;44883;52.760;6.610;2022-10-16T12:07:24;16.50;99.90
59098;DHT22;44883;52.760;6.610;2022-10-16T12:09:49;16.50;99.90
59098;DHT22;44883;52.760;6.610;2022-10-16T12:12:27;16.50;99.90
59098;DHT22;44883;52.760;6.610;2022-10-16T12:17:48;16.50;99.90
59098;DHT22;44883;52.760;6.610;2022-10-16T12:22:48;16.50;99.90
59098;DHT22;44883;52.760;6.610;2022-10-16T12:25:33;16.60;99.90
59098;DHT22;44883;52.760;6.610;2022-10-16T12:28:00;16.60;99.90
59098;DHT22;44883;52.760;6.610;2022-10-16T12:30:28;16.70;99.90
59098;DHT22;44883;52.760;6.610;2022-10-16T12:32:58;16.70;99.90
59098;DHT22;44883;52.760;6.610;2022-10-16T12:35:26;16.60;99.90
59098;DHT22;44883;52.760;6.610;2022-10-16T12:37:52;16.60;99.90
59098;DHT22;44883;52.760;6.610;2022-10-16T12:42:50;16.60;99.90
59098;DHT22;44883;52.760;6.610;2022-10-16T12:47:51;16.40;99.90
59098;DHT22;44883;52.760;6.610;2022-10-16T12:50:25;16.30;99.90
59098;DHT22;44883;52.760;6.610;2022-10-16T12:52:51;16.30;99.90
59098;DHT22;44883;52.760;6.610;2022-10-16T12:55:17;16.30;99.90
59098;DHT22;44883;52.760;6.610;2022-10-16T12:57:49;16.30;99.90
59098;DHT22;44883;52.760;6.610;2022-10-16T13:03:20;16.30;99.90
59098;DHT22;44883;52.760;6.610;2022-10-16T13:11:04;16.70;99.90
59098;DHT22;44883;52.760;6.610;2022-10-16T13:16:42;18.40;99.80
59098;DHT22;44883;52.760;6.610;2022-10-16T13:21:49;19.40;97.10
59098;DHT22;44883;52.760;6.610;2022-10-16T13:29:32;18.80;95.30
59098;DHT22;44883;52.760;6.610;2022-10-16T13:31:59;18.50;96.50
59098;DHT22;44883;52.760;6.610;2022-10-16T13:34:25;18.20;97.20
59098;DHT22;44883;52.760;6.610;2022-10-16T13:36:52;18.00;96.00
59098;DHT22;44883;52.760;6.610;2022-10-16T13:39:25;17.70;97.00
59098;DHT22;44883;52.760;6.610;2022-10-16T13:41:58;17.60;97.90
59098;DHT22;44883;52.760;6.610;2022-10-16T13:44:26;17.50;97.20
59098;DHT22;44883;52.760;6.610;2022-10-16T13:47:01;17.40;97.30
59098;DHT22;44883;52.760;6.610;2022-10-16T13:49:26;17.30;98.60
59098;DHT22;44883;52.760;6.610;2022-10-16T13:51:59;17.20;97.80
59098;DHT22;44883;52.760;6.610;2022-10-16T13:54:26;17.00;98.20
59098;DHT22;44883;52.760;6.610;2022-10-16T13:56:52;16.80;98.50
59098;DHT22;44883;52.760;6.610;2022-10-16T13:59:33;16.60;98.40
59098;DHT22;44883;52.760;6.610;2022-10-16T14:01:58;16.50;99.10
59098;DHT22;44883;52.760;6.610;2022-10-16T14:04:25;16.50;98.60
59098;DHT22;44883;52.760;6.610;2022-10-16T14:06:53;16.40;98.50
59098;DHT22;44883;52.760;6.610;2022-10-16T14:11:48;16.30;98.60
59098;DHT22;44883;52.760;6.610;2022-10-16T14:14:14;16.20;99.00
59098;DHT22;44883;52.760;6.610;2022-10-16T14:16:41;16.20;99.60
59098;DHT22;44883;52.760;6.610;2022-10-16T14:19:21;16.20;99.70
59098;DHT22;44883;52.760;6.610;2022-10-16T14:21:49;16.10;99.90
59098;DHT22;44883;52.760;6.610;2022-10-16T14:24:30;16.10;99.80
59098;DHT22;44883;52.760;6.610;2022-10-16T14:26:57;16.10;99.90
59098;DHT22;44883;52.760;6.610;2022-10-16T14:29:23;16.00;99.20
59098;DHT22;44883;52.760;6.610;2022-10-16T14:31:59;16.00;99.90
59098;DHT22;44883;52.760;6.610;2022-10-16T14:34:32;16.00;99.60
59098;DHT22;44883;52.760;6.610;2022-10-16T14:37:06;16.00;99.80
59098;DHT22;44883;52.760;6.610;2022-10-16T14:39:33;15.90;99.90
59098;DHT22;44883;52.760;6.610;2022-10-16T14:41:59;15.90;99.90
59098;DHT22;44883;52.760;6.610;2022-10-16T14:44:27;15.90;99.90
59098;DHT22;44883;52.760;6.610;2022-10-16T14:46:53;15.90;99.90
59098;DHT22;44883;52.760;6.610;2022-10-16T14:49:20;15.90;99.90
59098;DHT22;44883;52.760;6.610;2022-10-16T14:51:46;15.90;99.90
59098;DHT22;44883;52.760;6.610;2022-10-16T14:54:13;15.90;99.90
59098;DHT22;44883;52.760;6.610;2022-10-16T14:59:08;16.00;99.90
59098;DHT22;44883;52.760;6.610;2022-10-16T15:01:37;16.00;99.90
59098;DHT22;44883;52.760;6.610;2022-10-16T15:04:02;16.00;99.90
59098;DHT22;44883;52.760;6.610;2022-10-16T15:06:28;16.00;99.90
59098;DHT22;44883;52.760;6.610;2022-10-16T15:08:53;16.00;99.90
59098;DHT22;44883;52.760;6.610;2022-10-16T15:11:18;16.00;99.90
59098;DHT22;44883;52.760;6.610;2022-10-16T15:13:45;16.00;99.90
59098;DHT22;44883;52.760;6.610;2022-10-16T15:16:11;16.00;99.90
59098;DHT22;44883;52.760;6.610;2022-10-16T15:18:37;15.90;99.90
59098;DHT22;44883;52.760;6.610;2022-10-16T15:21:02;15.90;99.90
59098;DHT22;44883;52.760;6.610;2022-10-16T15:23:28;15.80;99.90
59098;DHT22;44883;52.760;6.610;2022-10-16T15:25:55;15.80;99.90
59098;DHT22;44883;52.760;6.610;2022-10-16T15:28:21;15.80;99.90
59098;DHT22;44883;52.760;6.610;2022-10-16T15:30:49;15.80;99.90
59098;DHT22;44883;52.760;6.610;2022-10-16T15:33:15;15.70;99.90
59098;DHT22;44883;52.760;6.610;2022-10-16T15:35:41;15.70;99.90
59098;DHT22;44883;52.760;6.610;2022-10-16T15:38:09;15.60;99.90
59098;DHT22;44883;52.760;6.610;2022-10-16T15:40:36;15.60;99.90
59098;DHT22;44883;52.760;6.610;2022-10-16T15:43:02;15.50;99.90
59098;DHT22;44883;52.760;6.610;2022-10-16T15:45:27;15.50;99.90
59098;DHT22;44883;52.760;6.610;2022-10-16T15:47:53;15.40;99.90
59098;DHT22;44883;52.760;6.610;2022-10-16T15:50:18;15.40;99.90
59098;DHT22;44883;52.760;6.610;2022-10-16T15:52:44;15.40;99.90
59098;DHT22;44883;52.760;6.610;2022-10-16T15:55:10;15.30;99.90
59098;DHT22;44883;52.760;6.610;2022-10-16T15:57:36;15.20;99.90
59098;DHT22;44883;52.760;6.610;2022-10-16T16:00:07;15.20;99.90
59098;DHT22;44883;52.760;6.610;2022-10-16T16:02:33;15.10;99.90
59098;DHT22;44883;52.760;6.610;2022-10-16T16:04:58;15.10;99.90
59098;DHT22;44883;52.760;6.610;2022-10-16T16:07:24;15.00;99.90
59098;DHT22;44883;52.760;6.610;2022-10-16T16:09:49;14.90;99.90
59098;DHT22;44883;52.760;6.610;2022-10-16T16:12:15;14.80;99.90
59098;DHT22;44883;52.760;6.610;2022-10-16T16:14:40;14.80;99.90
59098;DHT22;44883;52.760;6.610;2022-10-16T16:17:06;14.70;99.90
59098;DHT22;44883;52.760;6.610;2022-10-16T16:19:32;14.60;99.90
59098;DHT22;44883;52.760;6.610;2022-10-16T16:21:58;14.50;99.90
59098;DHT22;44883;52.760;6.610;2022-10-16T16:24:23;14.50;99.90
59098;DHT22;44883;52.760;6.610;2022-10-16T16:26:49;14.40;99.90
59098;DHT22;44883;52.760;6.610;2022-10-16T16:29:15;14.40;99.90
59098;DHT22;44883;52.760;6.610;2022-10-16T16:31:41;14.30;99.90
59098;DHT22;44883;52.760;6.610;2022-10-16T16:34:07;14.20;99.90
59098;DHT22;44883;52.760;6.610;2022-10-16T16:36:32;14.20;99.90
59098;DHT22;44883;52.760;6.610;2022-10-16T16:38:58;14.10;99.90
59098;DHT22;44883;52.760;6.610;2022-10-16T16:41:25;14.10;99.90
59098;DHT22;44883;52.760;6.610;2022-10-16T16:43:51;14.00;99.90
59098;DHT22;44883;52.760;6.610;2022-10-16T16:46:17;13.90;99.90
59098;DHT22;44883;52.760;6.610;2022-10-16T16:48:43;13.90;99.90
59098;DHT22;44883;52.760;6.610;2022-10-16T16:51:10;13.80;99.90
59098;DHT22;44883;52.760;6.610;2022-10-16T16:53:40;13.80;99.90
59098;DHT22;44883;52.760;6.610;2022-10-16T16:56:06;13.70;99.90
59098;DHT22;44883;52.760;6.610;2022-10-16T16:58:32;13.70;99.90
59098;DHT22;44883;52.760;6.610;2022-10-16T17:00:58;13.60;99.90
59098;DHT22;44883;52.760;6.610;2022-10-16T17:03:27;13.50;99.90
59098;DHT22;44883;52.760;6.610;2022-10-16T17:05:57;13.50;99.90
59098;DHT22;44883;52.760;6.610;2022-10-16T17:08:22;13.40;99.90
59098;DHT22;44883;52.760;6.610;2022-10-16T17:10:48;13.40;99.90